createdAt,value
2022-12-01T00:01:18.397Z,19.38
2022-12-01T00:03:45.176Z,20.08
2022-12-01T00:06:19.956Z,19.00
2022-12-01T00:09:10.882Z,18.73
2022-12-01T00:11:38.892Z,18.88
2022-12-01T00:14:06.541Z,19.75
2022-12-01T00:16:34.039Z,19.27
2022-12-01T00:19:00.792Z,19.23
2022-12-01T00:21:27.949Z,20.13
2022-12-01T00:23:56.808Z,19.55
2022-12-01T00:26:25.488Z,20.58
2022-12-01T00:28:54.176Z,19.33
2022-12-01T00:31:21.433Z,18.08
2022-12-01T00:33:48.143Z,20.20
2022-12-01T00:36:14.834Z,20.75
2022-12-01T00:38:42.062Z,19.48
2022-12-01T00:41:08.747Z,19.90
2022-12-01T00:43:35.601Z,19.92
2022-12-01T00:46:02.757Z,20.08
2022-12-01T00:48:29.573Z,19.13
2022-12-01T00:50:56.770Z,18.55
2022-12-01T00:53:24.604Z,19.48
2022-12-01T00:55:55.642Z,20.67
2022-12-01T00:58:23.293Z,18.83
2022-12-01T01:00:56.444Z,17.35
2022-12-01T01:03:23.229Z,18.73
2022-12-01T01:05:51.270Z,17.60
2022-12-01T01:08:17.918Z,18.35
2022-12-01T01:10:47.122Z,18.50
2022-12-01T01:13:14.958Z,19.33
2022-12-01T01:15:41.902Z,18.23
2022-12-01T01:18:09.650Z,18.33
2022-12-01T01:20:38.799Z,19.15
2022-12-01T01:23:05.560Z,18.17
2022-12-01T01:25:33.102Z,18.30
2022-12-01T01:27:59.836Z,18.10
2022-12-01T01:30:26.646Z,18.15
2022-12-01T01:32:53.342Z,17.98
2022-12-01T01:35:19.990Z,17.15
2022-12-01T01:37:46.781Z,16.75
2022-12-01T01:40:13.443Z,16.20
2022-12-01T01:42:40.087Z,16.67
2022-12-01T01:45:22.187Z,16.95
2022-12-01T01:47:51.899Z,16.08
2022-12-01T01:50:22.331Z,17.10
2022-12-01T01:52:55.114Z,17.40
2022-12-01T01:55:21.806Z,16.00
2022-12-01T01:57:51.133Z,16.05
2022-12-01T02:00:20.806Z,15.48
2022-12-01T02:02:50.198Z,16.05
2022-12-01T02:05:24.069Z,16.88
2022-12-01T02:07:52.824Z,16.55
2022-12-01T02:10:23.759Z,15.65
2022-12-01T02:13:25.993Z,17.08
2022-12-01T02:16:14.312Z,15.85
2022-12-01T02:19:25.615Z,16.02
2022-12-01T02:22:23.450Z,15.90
2022-12-01T02:24:56.515Z,16.55
2022-12-01T02:27:55.231Z,17.20
2022-12-01T02:31:11.801Z,17.98
2022-12-01T02:33:54.068Z,16.92
2022-12-01T02:36:35.659Z,16.67
2022-12-01T02:39:22.113Z,16.35
2022-12-01T02:41:53.110Z,18.15
2022-12-01T02:44:30.111Z,16.60
2022-12-01T02:47:00.848Z,17.20
2022-12-01T02:52:00.360Z,16.73
2022-12-01T02:54:30.532Z,16.50
2022-12-01T02:56:57.247Z,17.33
2022-12-01T02:59:23.956Z,16.05
2022-12-01T03:02:15.405Z,18.27
2022-12-01T03:05:01.631Z,16.33
2022-12-01T03:08:05.669Z,15.38
2022-12-01T03:10:55.986Z,17.63
2022-12-01T03:13:22.826Z,17.08
2022-12-01T03:16:27.201Z,16.83
2022-12-01T03:19:14.486Z,19.48
2022-12-01T03:22:01.545Z,17.48
2022-12-01T03:24:33.066Z,16.35
2022-12-01T03:27:02.311Z,17.45
2022-12-01T03:29:36.676Z,16.55
2022-12-01T03:32:13.095Z,17.63
2022-12-01T03:34:45.854Z,16.70
2022-12-01T03:37:43.505Z,16.88
2022-12-01T03:40:15.047Z,18.23
2022-12-01T03:43:04.642Z,18.08
2022-12-01T03:45:37.896Z,16.00
2022-12-01T03:48:05.278Z,15.60
2022-12-01T03:50:38.859Z,16.67
2022-12-01T03:53:09.705Z,17.02
2022-12-01T03:55:42.169Z,15.55
2022-12-01T03:58:24.108Z,16.55
2022-12-01T04:00:57.490Z,16.15
2022-12-01T04:03:27.062Z,16.08
2022-12-01T04:05:54.097Z,15.70
2022-12-01T04:08:23.056Z,15.80
2022-12-01T04:10:49.787Z,14.68
2022-12-01T04:13:22.836Z,14.30
2022-12-01T04:15:50.758Z,16.65
2022-12-01T04:18:21.366Z,15.15
2022-12-01T04:20:49.735Z,14.60
2022-12-01T04:23:37.202Z,15.85
2022-12-01T04:26:05.004Z,15.32
2022-12-01T04:28:32.063Z,14.95
2022-12-01T04:30:58.908Z,15.68
2022-12-01T04:33:25.589Z,16.70
2022-12-01T04:35:59.794Z,14.38
2022-12-01T04:38:30.569Z,14.90
2022-12-01T04:40:57.933Z,14.68
2022-12-01T04:43:24.773Z,14.40
2022-12-01T04:45:51.432Z,15.68
2022-12-01T04:48:18.097Z,15.38
2022-12-01T04:50:44.721Z,15.90
2022-12-01T04:53:11.355Z,15.90
2022-12-01T04:55:39.343Z,15.90
2022-12-01T04:58:06.468Z,14.65
2022-12-01T05:00:33.667Z,14.35
2022-12-01T05:03:03.061Z,16.00
2022-12-01T05:05:30.421Z,15.52
2022-12-01T05:07:58.817Z,15.98
2022-12-01T05:10:25.806Z,15.52
2022-12-01T05:12:55.124Z,15.95
2022-12-01T05:15:21.762Z,14.93
2022-12-01T05:17:48.498Z,16.45
2022-12-01T05:20:39.100Z,13.75
2022-12-01T05:23:12.218Z,16.17
2022-12-01T05:25:43.413Z,13.65
2022-12-01T05:28:10.048Z,14.13
2022-12-01T05:30:37.945Z,14.60
2022-12-01T05:33:04.663Z,13.38
2022-12-01T05:35:33.915Z,13.68
2022-12-01T05:38:06.108Z,14.55
2022-12-01T05:40:35.010Z,15.45
2022-12-01T05:43:01.802Z,13.98
2022-12-01T05:45:28.465Z,14.38
2022-12-01T05:47:59.807Z,14.77
2022-12-01T05:50:28.612Z,14.02
2022-12-01T05:52:55.642Z,13.52
2022-12-01T05:55:22.417Z,15.32
2022-12-01T05:57:49.169Z,14.45
2022-12-01T06:00:16.394Z,13.65
2022-12-01T06:02:43.314Z,13.18
2022-12-01T06:05:10.014Z,14.85
2022-12-01T06:07:36.778Z,13.88
2022-12-01T06:10:03.889Z,13.85
2022-12-01T06:12:30.545Z,13.77
2022-12-01T06:14:57.188Z,13.57
2022-12-01T06:17:24.055Z,15.13
2022-12-01T06:19:51.034Z,13.00
2022-12-01T06:22:17.923Z,15.50
2022-12-01T06:24:44.673Z,14.88
2022-12-01T06:27:11.367Z,16.08
2022-12-01T06:29:42.087Z,14.63
2022-12-01T06:32:09.673Z,14.88
2022-12-01T06:34:43.682Z,14.40
2022-12-01T06:37:11.429Z,14.68
2022-12-01T06:39:38.481Z,13.05
2022-12-01T06:42:05.302Z,16.23
2022-12-01T06:44:31.931Z,14.18
2022-12-01T06:46:58.608Z,13.95
2022-12-01T06:49:25.253Z,15.48
2022-12-01T06:51:51.934Z,16.05
2022-12-01T06:54:18.633Z,16.38
2022-12-01T06:56:46.038Z,14.82
2022-12-01T06:59:13.089Z,16.70
2022-12-01T07:01:42.640Z,17.45
2022-12-01T07:04:09.423Z,17.95
2022-12-01T07:06:36.176Z,17.77
2022-12-01T07:09:02.973Z,16.73
2022-12-01T07:11:32.147Z,17.40
2022-12-01T07:13:58.998Z,17.33
2022-12-01T07:16:25.737Z,16.15
2022-12-01T07:18:52.833Z,15.68
2022-12-01T07:21:19.631Z,16.83
2022-12-01T07:23:46.345Z,16.77
2022-12-01T07:26:15.456Z,14.95
2022-12-01T07:28:42.320Z,18.08
2022-12-01T07:31:11.548Z,15.43
2022-12-01T07:33:38.744Z,17.40
2022-12-01T07:36:06.148Z,17.27
2022-12-01T07:38:33.924Z,17.50
2022-12-01T07:41:06.267Z,16.83
2022-12-01T07:43:33.698Z,16.77
2022-12-01T07:46:09.195Z,14.40
2022-12-01T07:48:37.568Z,17.52
2022-12-01T07:51:05.723Z,15.05
2022-12-01T07:53:32.573Z,15.10
2022-12-01T07:56:02.092Z,17.00
2022-12-01T07:58:32.807Z,16.65
2022-12-01T08:01:05.008Z,17.80
2022-12-01T08:03:31.730Z,17.02
2022-12-01T08:05:59.923Z,14.68
2022-12-01T08:08:27.056Z,15.82
2022-12-01T08:10:54.174Z,14.68
2022-12-01T08:13:23.101Z,16.00
2022-12-01T08:15:49.979Z,17.08
2022-12-01T08:18:16.663Z,16.92
2022-12-01T08:20:43.336Z,17.38
2022-12-01T08:23:10.218Z,15.95
2022-12-01T08:25:36.974Z,17.23
2022-12-01T08:28:05.093Z,17.27
2022-12-01T08:30:31.994Z,15.43
2022-12-01T08:32:58.920Z,15.50
2022-12-01T08:35:27.943Z,15.65
2022-12-01T08:37:54.898Z,15.10
2022-12-01T08:40:22.259Z,17.10
2022-12-01T08:42:49.086Z,16.13
2022-12-01T08:45:15.926Z,14.90
2022-12-01T08:47:42.594Z,14.30
2022-12-01T08:50:10.922Z,14.98
2022-12-01T08:52:37.880Z,15.68
2022-12-01T08:55:05.279Z,14.85
2022-12-01T08:57:32.353Z,14.25
2022-12-01T08:59:59.001Z,13.38
2022-12-01T09:02:25.885Z,14.80
2022-12-01T09:04:52.714Z,16.83
2022-12-01T09:07:26.130Z,17.05
2022-12-01T09:09:53.370Z,17.30
2022-12-01T09:12:20.139Z,17.25
2022-12-01T09:14:49.904Z,16.65
2022-12-01T09:17:17.471Z,16.95
2022-12-01T09:19:44.704Z,17.30
2022-12-01T09:22:12.005Z,14.15
2022-12-01T09:24:39.118Z,13.30
2022-12-01T09:27:06.029Z,14.00
2022-12-01T09:29:33.105Z,13.63
2022-12-01T09:32:00.561Z,14.48
2022-12-01T09:34:29.075Z,12.23
2022-12-01T09:36:58.336Z,13.98
2022-12-01T09:39:25.579Z,12.15
2022-12-01T09:42:15.409Z,13.80
2022-12-01T09:44:55.157Z,13.53
2022-12-01T09:47:31.887Z,12.50
2022-12-01T09:50:07.018Z,10.98
2022-12-01T09:52:51.139Z,11.88
2022-12-01T09:55:21.114Z,13.60
2022-12-01T09:57:50.647Z,13.32
2022-12-01T10:00:21.508Z,10.48
2022-12-01T10:02:57.000Z,11.90
2022-12-01T10:05:28.352Z,12.70
2022-12-01T10:08:00.310Z,12.82
2022-12-01T10:10:38.129Z,12.63
2022-12-01T10:13:22.887Z,12.48
2022-12-01T10:15:53.539Z,11.95
2022-12-01T10:21:14.300Z,13.00
2022-12-01T10:23:49.735Z,12.18
2022-12-01T10:26:31.659Z,13.95
2022-12-01T10:29:07.775Z,13.45
2022-12-01T10:31:38.885Z,18.92
2022-12-01T10:34:22.042Z,17.83
2022-12-01T10:36:48.925Z,19.90
2022-12-01T10:39:37.811Z,17.15
2022-12-01T10:42:11.955Z,17.77
2022-12-01T10:44:40.244Z,14.82
2022-12-01T10:47:25.458Z,13.75
2022-12-01T10:49:53.088Z,14.25
2022-12-01T10:52:37.790Z,14.15
2022-12-01T10:55:23.140Z,13.95
2022-12-01T10:57:50.478Z,15.88
2022-12-01T11:00:57.931Z,18.08
2022-12-01T11:03:22.570Z,17.45
2022-12-01T11:05:55.570Z,15.98
2022-12-01T11:08:49.212Z,16.23
2022-12-01T11:11:24.750Z,15.20
2022-12-01T11:13:51.793Z,15.60
2022-12-01T11:16:43.674Z,13.35
2022-12-01T11:19:26.801Z,14.48
2022-12-01T11:21:57.479Z,14.15
2022-12-01T11:24:45.234Z,14.88
2022-12-01T11:27:20.942Z,14.07
2022-12-01T11:30:05.467Z,12.85
2022-12-01T11:32:39.899Z,13.43
2022-12-01T11:35:18.159Z,12.07
2022-12-01T11:38:13.230Z,12.50
2022-12-01T11:40:55.288Z,13.60
2022-12-01T11:43:30.331Z,13.13
2022-12-01T11:45:59.756Z,14.02
2022-12-01T11:48:32.107Z,13.52
2022-12-01T11:51:27.318Z,13.07
2022-12-01T11:54:17.028Z,16.25
2022-12-01T11:56:45.098Z,14.98
2022-12-01T11:59:13.314Z,16.67
2022-12-01T12:01:58.708Z,16.55
2022-12-01T12:04:50.100Z,14.25
2022-12-01T12:07:47.493Z,14.85
2022-12-01T12:10:32.630Z,15.85
2022-12-01T12:13:40.400Z,14.55
2022-12-01T12:16:28.802Z,14.40
2022-12-01T12:19:34.019Z,16.15
2022-12-01T12:22:39.394Z,16.25
2022-12-01T12:25:12.186Z,14.25
2022-12-01T12:27:50.602Z,14.65
2022-12-01T12:30:29.928Z,12.52
2022-12-01T12:33:34.756Z,13.68
2022-12-01T12:36:18.895Z,13.85
2022-12-01T12:38:56.491Z,15.15
2022-12-01T12:41:45.991Z,15.10
2022-12-01T12:44:35.396Z,18.58
2022-12-01T12:47:31.573Z,18.90
2022-12-01T12:50:36.909Z,19.77
2022-12-01T12:53:13.911Z,18.73
2022-12-01T12:55:45.376Z,16.08
2022-12-01T12:58:22.485Z,16.98
2022-12-01T13:01:12.383Z,17.88
2022-12-01T13:03:51.498Z,17.85
2022-12-01T13:06:27.678Z,19.23
2022-12-01T13:09:15.233Z,17.65
2022-12-01T13:11:57.624Z,18.08
2022-12-01T13:14:30.730Z,20.88
2022-12-01T13:17:14.310Z,22.23
2022-12-01T13:19:42.741Z,25.08
2022-12-01T13:22:12.617Z,22.15
2022-12-01T13:24:39.475Z,21.98
2022-12-01T13:27:28.165Z,20.55
2022-12-01T13:29:56.277Z,21.75
2022-12-01T13:32:30.319Z,19.23
2022-12-01T13:34:57.624Z,20.52
2022-12-01T13:37:31.095Z,21.27
2022-12-01T13:40:29.179Z,20.92
2022-12-01T13:43:02.169Z,18.75
2022-12-01T13:45:36.805Z,21.25
2022-12-01T13:48:06.923Z,19.38
2022-12-01T13:50:43.017Z,18.60
2022-12-01T13:53:30.629Z,19.25
2022-12-01T13:56:03.241Z,18.55
2022-12-01T13:58:32.864Z,20.48
2022-12-01T14:01:21.710Z,21.27
2022-12-01T14:03:57.848Z,19.10
2022-12-01T14:06:31.790Z,17.77
2022-12-01T14:09:12.079Z,19.42
2022-12-01T14:11:38.980Z,19.20
2022-12-01T14:14:25.589Z,17.88
2022-12-01T14:16:55.683Z,17.67
2022-12-01T14:19:35.943Z,19.10
2022-12-01T14:22:04.721Z,20.17
2022-12-01T14:24:35.586Z,19.92
2022-12-01T14:27:03.902Z,20.63
2022-12-01T14:29:38.293Z,19.83
2022-12-01T14:32:20.430Z,19.25
2022-12-01T14:34:51.429Z,19.67
2022-12-01T14:37:20.986Z,19.48
2022-12-01T14:39:58.089Z,19.45
2022-12-01T14:43:01.830Z,21.38
2022-12-01T14:45:39.089Z,21.10
2022-12-01T14:48:13.112Z,20.08
2022-12-01T14:50:55.312Z,21.58
2022-12-01T14:53:26.056Z,21.55
2022-12-01T14:58:27.754Z,16.77
2022-12-01T15:00:59.615Z,21.40
2022-12-01T15:03:32.248Z,21.35
2022-12-01T15:05:58.987Z,21.15
2022-12-01T15:09:03.886Z,21.17
2022-12-01T15:11:25.413Z,21.80
2022-12-01T15:13:54.413Z,20.70
2022-12-01T15:16:23.879Z,21.35
2022-12-01T15:18:50.739Z,15.77
2022-12-01T15:21:20.681Z,15.55
2022-12-01T15:24:00.539Z,17.27
2022-12-01T15:26:34.830Z,17.75
2022-12-01T15:29:22.542Z,17.40
2022-12-01T15:32:06.994Z,19.42
2022-12-01T15:34:37.942Z,16.85
2022-12-01T15:37:09.713Z,16.27
2022-12-01T15:39:45.307Z,15.50
2022-12-01T15:42:27.125Z,16.13
2022-12-01T15:45:04.606Z,15.43
2022-12-01T15:47:38.022Z,14.45
2022-12-01T15:50:06.026Z,14.00
2022-12-01T15:52:41.963Z,15.68
2022-12-01T15:55:25.826Z,15.93
2022-12-01T15:57:52.805Z,14.68
2022-12-01T16:00:21.090Z,14.07
2022-12-01T16:02:57.328Z,16.25
2022-12-01T16:05:32.442Z,16.58
2022-12-01T16:08:20.998Z,15.73
2022-12-01T16:11:12.309Z,14.07
2022-12-01T16:13:44.468Z,16.13
2022-12-01T16:16:41.522Z,16.50
2022-12-01T16:19:10.938Z,13.90
2022-12-01T16:22:10.359Z,13.25
2022-12-01T16:24:50.755Z,14.25
2022-12-01T16:27:29.259Z,13.75
2022-12-01T16:29:59.602Z,14.07
2022-12-01T16:32:34.053Z,14.95
2022-12-01T16:35:01.102Z,15.73
2022-12-01T16:37:28.188Z,14.77
2022-12-01T16:39:54.936Z,15.70
2022-12-01T16:42:22.547Z,14.07
2022-12-01T16:44:51.096Z,14.13
2022-12-01T16:47:21.006Z,14.25
2022-12-01T16:49:48.092Z,13.63
2022-12-01T16:52:43.247Z,11.35
2022-12-01T16:55:02.919Z,11.88
2022-12-01T16:57:29.562Z,11.73
2022-12-01T16:59:56.236Z,13.15
2022-12-01T17:02:23.047Z,12.27
2022-12-01T17:04:49.979Z,12.82
2022-12-01T17:07:17.607Z,12.27
2022-12-01T17:09:44.324Z,11.82
2022-12-01T17:12:11.008Z,14.52
2022-12-01T17:14:38.057Z,13.93
2022-12-01T17:17:06.291Z,19.02
2022-12-01T17:19:32.973Z,16.75
2022-12-01T17:21:59.869Z,16.08
2022-12-01T17:24:26.607Z,12.90
2022-12-01T17:26:53.556Z,12.73
2022-12-01T17:29:20.170Z,13.90
2022-12-01T17:31:46.820Z,14.98
2022-12-01T17:34:13.643Z,13.70
2022-12-01T17:36:41.657Z,12.73
2022-12-01T17:39:08.279Z,13.23
2022-12-01T17:41:36.067Z,11.38
2022-12-01T17:44:04.334Z,10.35
2022-12-01T17:46:31.882Z,10.70
2022-12-01T17:48:59.321Z,11.25
2022-12-01T17:51:26.061Z,11.05
2022-12-01T17:53:54.006Z,11.00
2022-12-01T17:56:20.674Z,10.57
2022-12-01T17:58:50.388Z,10.10
2022-12-01T18:01:25.406Z,9.40
2022-12-01T18:03:57.881Z,10.13
2022-12-01T18:06:25.626Z,8.90
2022-12-01T18:08:53.206Z,8.85
2022-12-01T18:11:20.902Z,9.35
2022-12-01T18:13:50.182Z,9.55
2022-12-01T18:16:23.948Z,9.38
2022-12-01T18:18:51.575Z,9.38
2022-12-01T18:21:20.378Z,9.60
2022-12-01T18:23:51.854Z,9.85
2022-12-01T18:26:20.527Z,9.73
2022-12-01T18:28:47.530Z,10.10
2022-12-01T18:31:16.010Z,11.55
2022-12-01T18:33:44.713Z,12.18
2022-12-01T18:36:22.847Z,12.43
2022-12-01T18:38:50.705Z,12.23
2022-12-01T18:41:18.276Z,9.32
2022-12-01T18:43:45.342Z,9.90
2022-12-01T18:46:13.743Z,11.90
2022-12-01T18:49:00.407Z,12.93
2022-12-01T18:51:27.298Z,14.30
2022-12-01T18:53:55.175Z,12.07
2022-12-01T18:56:21.979Z,11.25
2022-12-01T18:58:54.751Z,9.88
2022-12-01T19:01:25.690Z,10.18
2022-12-01T19:03:54.983Z,12.25
2022-12-01T19:06:22.087Z,9.30
2022-12-01T19:08:49.013Z,9.00
2022-12-01T19:11:15.835Z,9.30
2022-12-01T19:13:42.990Z,8.70
2022-12-01T19:16:13.153Z,9.13
2022-12-01T19:18:40.693Z,9.25
2022-12-01T19:21:10.875Z,10.30
2022-12-01T19:23:38.105Z,12.00
2022-12-01T19:26:11.568Z,11.57
2022-12-01T19:28:38.885Z,9.60
2022-12-01T19:31:13.143Z,7.65
2022-12-01T19:33:40.104Z,8.02
2022-12-01T19:36:11.138Z,9.70
2022-12-01T19:38:38.414Z,10.70
2022-12-01T19:41:06.812Z,10.55
2022-12-01T19:43:34.800Z,10.35
2022-12-01T19:46:16.779Z,9.50
2022-12-01T19:48:43.895Z,10.80
2022-12-01T19:51:18.808Z,10.10
2022-12-01T19:53:46.102Z,9.98
2022-12-01T19:56:12.767Z,11.23
2022-12-01T19:58:39.429Z,11.25
2022-12-01T20:01:12.348Z,11.88
2022-12-01T20:03:40.681Z,12.52
2022-12-01T20:06:12.858Z,14.45
2022-12-01T20:08:39.968Z,14.55
2022-12-01T20:11:07.417Z,14.77
2022-12-01T20:13:39.192Z,13.70
2022-12-01T20:16:18.096Z,14.05
2022-12-01T20:18:45.292Z,13.73
2022-12-01T20:21:19.362Z,13.05
2022-12-01T20:23:51.271Z,13.02
2022-12-01T20:26:19.468Z,14.75
2022-12-01T20:28:48.265Z,13.80
2022-12-01T20:31:23.448Z,12.52
2022-12-01T20:33:52.323Z,12.30
2022-12-01T20:36:19.150Z,12.60
2022-12-01T20:38:45.875Z,14.07
2022-12-01T20:41:12.733Z,12.98
2022-12-01T20:43:42.442Z,12.85
2022-12-01T20:46:09.431Z,13.47
2022-12-01T20:48:36.253Z,13.02
2022-12-01T20:51:05.008Z,13.00
2022-12-01T20:53:31.944Z,15.30
2022-12-01T20:56:03.355Z,14.35
2022-12-01T20:58:34.473Z,13.48
2022-12-01T21:01:15.986Z,13.20
2022-12-01T21:03:44.992Z,13.63
2022-12-01T21:06:14.056Z,12.85
2022-12-01T21:08:42.980Z,14.07
2022-12-01T21:11:44.799Z,13.15
2022-12-01T21:14:18.307Z,12.35
2022-12-01T21:16:49.183Z,13.07
2022-12-01T21:19:26.670Z,13.45
2022-12-01T21:21:53.379Z,12.88
2022-12-01T21:24:22.369Z,13.65
2022-12-01T21:26:58.289Z,12.88
2022-12-01T21:29:28.116Z,13.88
2022-12-01T21:32:03.029Z,14.48
2022-12-01T21:34:30.003Z,13.38
2022-12-01T21:37:01.948Z,14.18
2022-12-01T21:39:30.096Z,12.48
2022-12-01T21:42:06.900Z,12.70
2022-12-01T21:44:37.376Z,12.85
2022-12-01T21:47:17.574Z,12.38
2022-12-01T21:49:45.361Z,12.10
2022-12-01T21:52:19.907Z,12.00
2022-12-01T21:54:46.897Z,11.57
2022-12-01T21:57:53.176Z,13.32
2022-12-01T22:00:29.318Z,12.95
2022-12-01T22:03:08.341Z,12.15
2022-12-01T22:06:07.092Z,11.48
2022-12-01T22:08:40.045Z,13.38
2022-12-01T22:11:18.771Z,11.48
2022-12-01T22:13:59.091Z,12.43
2022-12-01T22:16:30.217Z,10.05
2022-12-01T22:18:59.802Z,11.85
2022-12-01T22:21:40.445Z,12.73
2022-12-01T22:24:09.908Z,11.45
2022-12-01T22:26:48.883Z,10.10
2022-12-01T22:29:35.615Z,10.32
2022-12-01T22:32:26.816Z,10.80
2022-12-01T22:34:57.575Z,11.30
2022-12-01T22:37:34.023Z,10.77
2022-12-01T22:40:00.803Z,10.88
2022-12-01T22:42:32.635Z,10.02
2022-12-01T22:45:24.439Z,11.18
2022-12-01T22:47:54.046Z,11.40
2022-12-01T22:50:32.145Z,13.13
2022-12-01T22:53:14.524Z,14.05
2022-12-01T22:55:41.730Z,12.25
2022-12-01T22:58:28.202Z,13.10
2022-12-01T23:00:57.957Z,12.80
2022-12-01T23:03:26.093Z,11.32
2022-12-01T23:05:56.665Z,12.85
2022-12-01T23:08:24.335Z,13.10
2022-12-01T23:10:51.210Z,13.32
2022-12-01T23:13:24.313Z,14.95
2022-12-01T23:15:54.319Z,13.05
2022-12-01T23:18:31.599Z,13.48
2022-12-01T23:21:00.785Z,14.25
2022-12-01T23:23:33.467Z,14.80
2022-12-01T23:26:07.421Z,12.27
2022-12-01T23:28:36.953Z,13.88
2022-12-01T23:31:03.697Z,12.00
2022-12-01T23:33:32.510Z,11.93
2022-12-01T23:36:15.902Z,12.00
2022-12-01T23:38:44.859Z,12.73
2022-12-01T23:41:25.420Z,13.02
2022-12-01T23:43:56.940Z,12.10
2022-12-01T23:46:28.267Z,11.45
2022-12-01T23:49:01.379Z,11.77
2022-12-01T23:51:37.278Z,13.02
2022-12-01T23:54:16.038Z,12.57
2022-12-01T23:56:43.338Z,11.85
2022-12-01T23:59:14.180Z,13.05
